createdAt,value
2022-08-10T00:01:52.259Z,98946.66
2022-08-10T00:04:21.636Z,98946.75
2022-08-10T00:06:50.295Z,98944.81
2022-08-10T00:09:16.938Z,98943.53
2022-08-10T00:11:43.537Z,98946.22
2022-08-10T00:14:10.103Z,98937.47
2022-08-10T00:16:36.747Z,98945.22
2022-08-10T00:19:03.395Z,98949.72
2022-08-10T00:21:30.037Z,98940.22
2022-08-10T00:23:56.694Z,98937.38
2022-08-10T00:26:23.360Z,98937.38
2022-08-10T00:28:49.936Z,98945.13
2022-08-10T00:31:16.591Z,98943.91
2022-08-10T00:33:43.218Z,98948.16
2022-08-10T00:36:09.993Z,98941.72
2022-08-10T00:38:37.657Z,98940.63
2022-08-10T00:41:04.436Z,98949.63
2022-08-10T00:43:30.990Z,98950.00
2022-08-10T00:45:58.998Z,98946.88
2022-08-10T00:48:28.918Z,98941.03
2022-08-10T00:50:55.672Z,98942.25
2022-08-10T00:53:22.270Z,98934.97
2022-08-10T00:57:15.049Z,98932.50
2022-08-10T00:58:37.468Z,98936.81
2022-08-10T01:01:06.180Z,98942.34
2022-08-10T01:04:36.531Z,98938.38
2022-08-10T01:06:32.272Z,98935.06
2022-08-10T01:09:03.007Z,98934.59
2022-08-10T01:12:39.169Z,98931.28
2022-08-10T01:14:35.490Z,98938.81
2022-08-10T01:17:11.630Z,98933.47
2022-08-10T01:19:57.366Z,98932.53
2022-08-10T01:22:45.819Z,98944.56
2022-08-10T01:26:11.442Z,98932.22
2022-08-10T01:28:47.885Z,98935.28
2022-08-10T01:31:19.381Z,98935.97
2022-08-10T01:34:02.284Z,98946.38
2022-08-10T01:36:34.854Z,98940.56
2022-08-10T01:39:03.904Z,98936.88
2022-08-10T01:41:51.363Z,98937.91
2022-08-10T01:44:30.138Z,98943.91
2022-08-10T01:47:23.575Z,98939.00
2022-08-10T01:49:54.672Z,98932.94
2022-08-10T01:52:23.562Z,98942.78
2022-08-10T01:54:52.037Z,98940.50
2022-08-10T01:57:20.858Z,98940.19
2022-08-10T01:59:54.557Z,98946.72
2022-08-10T02:02:33.703Z,98950.44
2022-08-10T02:05:02.408Z,98949.59
2022-08-10T02:07:30.693Z,98948.41
2022-08-10T02:10:09.200Z,98953.56
2022-08-10T02:12:36.273Z,98947.09
2022-08-10T02:15:11.166Z,98949.47
2022-08-10T02:17:59.679Z,98940.34
2022-08-10T02:20:31.871Z,98942.19
2022-08-10T02:23:09.910Z,98944.84
2022-08-10T02:25:41.099Z,98938.69
2022-08-10T02:28:10.260Z,98934.41
2022-08-10T02:30:37.459Z,98939.63
2022-08-10T02:33:04.777Z,98944.50
2022-08-10T02:35:44.996Z,98947.03
2022-08-10T02:38:23.279Z,98951.09
2022-08-10T02:42:18.677Z,98952.81
2022-08-10T02:45:27.431Z,98943.81
2022-08-10T02:47:12.375Z,98944.44
2022-08-10T02:49:42.233Z,98947.94
2022-08-10T02:52:17.767Z,98943.72
2022-08-10T02:54:51.277Z,98946.22
2022-08-10T02:57:25.558Z,98951.69
2022-08-10T02:59:54.355Z,98959.34
2022-08-10T03:02:30.953Z,98945.63
2022-08-10T03:05:05.524Z,98942.78
2022-08-10T03:07:43.104Z,98948.56
2022-08-10T03:10:17.690Z,98943.59
2022-08-10T03:12:47.672Z,98943.59
2022-08-10T03:15:15.736Z,98950.94
2022-08-10T03:17:56.931Z,98940.44
2022-08-10T03:20:37.830Z,98945.50
2022-08-10T03:23:10.913Z,98935.38
2022-08-10T03:25:38.405Z,98943.38
2022-08-10T03:28:05.852Z,98946.56
2022-08-10T03:30:34.322Z,98947.09
2022-08-10T03:33:03.308Z,98944.13
2022-08-10T03:35:30.174Z,98946.34
2022-08-10T03:38:00.021Z,98956.72
2022-08-10T03:40:44.896Z,98955.94
2022-08-10T03:43:18.112Z,98954.16
2022-08-10T03:45:55.936Z,98948.97
2022-08-10T03:48:32.338Z,98957.66
2022-08-10T03:51:14.722Z,98953.50
2022-08-10T03:54:05.814Z,98958.00
2022-08-10T03:56:31.904Z,98956.69
2022-08-10T03:58:59.579Z,98965.41
2022-08-10T04:02:46.399Z,98963.56
2022-08-10T04:04:17.557Z,98964.06
2022-08-10T04:06:47.362Z,98955.50
2022-08-10T04:09:18.289Z,98963.34
2022-08-10T04:11:44.827Z,98961.66
2022-08-10T04:14:38.832Z,98968.69
2022-08-10T04:16:58.123Z,98973.88
2022-08-10T04:19:25.860Z,98974.22
2022-08-10T04:21:59.767Z,98977.19
2022-08-10T04:24:27.142Z,98978.53
2022-08-10T04:27:00.525Z,98974.63
2022-08-10T04:29:27.311Z,98974.44
2022-08-10T04:31:53.897Z,98975.63
2022-08-10T04:34:20.717Z,98984.81
2022-08-10T04:36:49.814Z,98971.00
2022-08-10T04:39:17.299Z,98975.97
2022-08-10T04:41:47.486Z,98974.78
2022-08-10T04:44:14.455Z,98975.91
2022-08-10T04:46:56.005Z,98976.47
2022-08-10T04:49:55.190Z,98982.31
2022-08-10T04:52:11.885Z,98988.50
2022-08-10T04:54:38.676Z,98979.66
2022-08-10T04:57:06.098Z,98975.81
2022-08-10T04:59:32.709Z,98975.81
2022-08-10T05:02:21.592Z,98970.59
2022-08-10T05:04:45.858Z,98972.06
2022-08-10T05:07:15.808Z,98978.53
2022-08-10T05:10:02.468Z,98979.38
2022-08-10T05:12:32.531Z,98973.19
2022-08-10T05:15:04.323Z,98979.84
2022-08-10T05:17:30.897Z,98983.00
2022-08-10T05:20:03.757Z,98978.78
2022-08-10T05:22:37.208Z,98989.00
2022-08-10T05:25:05.203Z,98990.78
2022-08-10T05:27:31.957Z,98990.53
2022-08-10T05:30:01.398Z,98990.28
2022-08-10T05:32:30.739Z,98985.75
2022-08-10T05:34:57.802Z,98988.38
2022-08-10T05:38:09.834Z,98988.97
2022-08-10T05:40:12.014Z,98985.38
2022-08-10T05:42:39.639Z,98995.72
2022-08-10T05:45:09.431Z,98989.38
2022-08-10T05:48:57.401Z,98989.66
2022-08-10T05:50:26.834Z,98995.91
2022-08-10T05:52:54.297Z,98994.00
2022-08-10T05:55:22.644Z,98996.31
2022-08-10T05:57:49.426Z,98987.16
2022-08-10T06:00:37.424Z,98994.09
2022-08-10T06:03:08.273Z,98993.78
2022-08-10T06:05:37.259Z,98995.19
2022-08-10T06:08:31.585Z,98999.56
2022-08-10T06:12:26.180Z,98991.75
2022-08-10T06:14:13.680Z,98991.66
2022-08-10T06:16:43.748Z,99001.34
2022-08-10T06:19:15.457Z,98998.97
2022-08-10T06:21:46.856Z,98988.56
2022-08-10T06:24:33.764Z,98990.69
2022-08-10T06:27:05.466Z,98993.31
2022-08-10T06:29:34.514Z,99001.75
2022-08-10T06:32:01.909Z,98999.84
2022-08-10T06:34:47.539Z,98993.41
2022-08-10T06:37:16.772Z,98989.50
2022-08-10T06:39:44.310Z,98997.72
2022-08-10T06:42:19.696Z,98996.75
2022-08-10T06:44:55.731Z,98995.56
2022-08-10T06:47:25.638Z,98995.81
2022-08-10T06:49:59.957Z,98993.38
2022-08-10T06:52:31.078Z,98987.41
2022-08-10T06:54:58.817Z,98995.06
2022-08-10T06:57:28.964Z,98992.38
2022-08-10T06:59:57.814Z,98993.59
2022-08-10T07:02:54.039Z,98986.78
2022-08-10T07:05:22.823Z,98991.31
2022-08-10T07:07:51.334Z,98990.47
2022-08-10T07:10:20.034Z,98985.69
2022-08-10T07:12:51.706Z,98990.47
2022-08-10T07:15:18.989Z,98989.75
2022-08-10T07:17:46.427Z,98996.16
2022-08-10T07:20:18.696Z,98986.81
2022-08-10T07:23:05.905Z,98994.03
2022-08-10T07:25:35.402Z,98988.56
2022-08-10T07:28:03.056Z,98984.16
2022-08-10T07:30:31.865Z,98982.88
2022-08-10T07:33:00.773Z,98988.47
2022-08-10T07:35:30.710Z,98980.44
2022-08-10T07:38:03.010Z,98982.63
2022-08-10T07:40:31.984Z,98983.22
2022-08-10T07:42:59.937Z,98972.66
2022-08-10T07:45:29.026Z,98977.56
2022-08-10T07:48:07.809Z,98985.22
2022-08-10T07:50:36.620Z,98979.88
2022-08-10T07:53:04.604Z,98981.88
2022-08-10T07:56:04.107Z,98974.19
2022-08-10T07:58:20.652Z,98975.16
2022-08-10T08:00:48.559Z,98979.94
2022-08-10T08:03:16.027Z,98969.03
2022-08-10T08:05:58.101Z,98963.91
2022-08-10T08:08:30.565Z,98964.75
2022-08-10T08:10:58.185Z,98969.06
2022-08-10T08:13:25.179Z,98970.94
2022-08-10T08:16:17.581Z,98974.75
2022-08-10T08:18:45.766Z,98975.34
2022-08-10T08:24:05.429Z,98967.69
2022-08-10T08:24:31.515Z,98973.34
2022-08-10T08:27:01.359Z,98970.28
2022-08-10T08:29:28.408Z,98969.72
2022-08-10T08:32:01.597Z,98974.06
2022-08-10T08:34:31.774Z,98974.91
2022-08-10T08:37:00.795Z,98972.00
2022-08-10T08:39:27.643Z,98964.78
2022-08-10T08:42:00.604Z,98963.31
2022-08-10T08:45:04.796Z,98966.94
2022-08-10T08:48:03.987Z,98965.16
2022-08-10T08:50:56.734Z,98959.66
2022-08-10T08:53:23.912Z,98955.75
2022-08-10T08:56:24.846Z,98957.41
2022-08-10T08:59:06.200Z,98958.28
2022-08-10T09:01:44.908Z,98964.69
2022-08-10T09:04:30.133Z,98963.69
2022-08-10T09:08:00.964Z,98956.59
2022-08-10T09:10:12.954Z,98951.22
2022-08-10T09:12:55.017Z,98946.75
2022-08-10T09:15:40.625Z,98954.47
2022-08-10T09:18:28.947Z,98954.78
2022-08-10T09:21:03.555Z,98945.50
2022-08-10T09:24:01.843Z,98956.28
2022-08-10T09:26:48.279Z,98944.91
2022-08-10T09:29:31.855Z,98937.00
2022-08-10T09:36:15.958Z,98934.34
2022-08-10T09:36:22.292Z,98926.81
2022-08-10T09:38:07.285Z,98930.50
2022-08-10T09:41:00.266Z,98928.81
2022-08-10T09:43:52.822Z,98926.28
2022-08-10T09:46:48.885Z,98943.97
2022-08-10T09:49:22.451Z,98934.97
2022-08-10T09:52:08.316Z,98931.56
2022-08-10T09:54:53.870Z,98930.50
2022-08-10T09:57:43.944Z,98932.09
2022-08-10T10:00:18.253Z,98926.91
2022-08-10T10:02:58.496Z,98933.66
2022-08-10T10:05:39.022Z,98929.84
2022-08-10T10:08:25.442Z,98923.19
2022-08-10T10:11:24.211Z,98912.97
2022-08-10T10:14:12.774Z,98931.16
2022-08-10T10:16:48.525Z,98935.44
2022-08-10T10:19:43.181Z,98926.72
2022-08-10T10:22:28.446Z,98920.88
2022-08-10T10:25:19.886Z,98924.50
2022-08-10T10:28:09.632Z,98922.78
2022-08-10T10:30:44.747Z,98917.44
2022-08-10T10:33:33.598Z,98907.91
2022-08-10T10:36:02.085Z,98907.16
2022-08-10T10:38:35.350Z,98904.22
2022-08-10T10:41:31.666Z,98905.44
2022-08-10T10:44:25.638Z,98894.94
2022-08-10T10:47:14.690Z,98901.44
2022-08-10T10:49:54.428Z,98895.38
2022-08-10T10:52:46.767Z,98899.31
2022-08-10T10:55:50.041Z,98898.97
2022-08-10T10:58:39.535Z,98893.31
2022-08-10T11:01:18.766Z,98882.59
2022-08-10T11:03:56.243Z,98886.09
2022-08-10T11:06:40.743Z,98878.22
2022-08-10T11:10:05.994Z,98885.06
2022-08-10T11:12:11.006Z,98879.44
2022-08-10T11:15:10.576Z,98878.03
2022-08-10T11:17:37.353Z,98879.19
2022-08-10T11:20:18.582Z,98882.28
2022-08-10T11:23:08.301Z,98870.56
2022-08-10T11:25:45.208Z,98874.66
2022-08-10T11:28:37.409Z,98875.91
2022-08-10T11:31:12.175Z,98877.50
2022-08-10T11:34:11.522Z,98873.94
2022-08-10T11:36:55.255Z,98861.03
2022-08-10T11:39:34.894Z,98858.16
2022-08-10T11:42:17.371Z,98870.34
2022-08-10T11:44:57.291Z,98857.81
2022-08-10T11:47:30.063Z,98871.81
2022-08-10T11:50:03.749Z,98882.28
2022-08-10T11:52:48.586Z,98866.03
2022-08-10T11:55:24.117Z,98867.25
2022-08-10T11:58:00.863Z,98868.78
2022-08-10T12:00:32.415Z,98861.56
2022-08-10T12:03:02.998Z,98858.22
2022-08-10T12:05:53.068Z,98860.00
2022-08-10T12:10:08.577Z,98860.56
2022-08-10T12:11:24.058Z,98857.22
2022-08-10T12:14:20.805Z,98849.84
2022-08-10T12:16:51.655Z,98851.00
2022-08-10T12:19:58.599Z,98843.00
2022-08-10T12:22:21.763Z,98845.19
2022-08-10T12:25:00.440Z,98854.97
2022-08-10T12:27:32.432Z,98849.88
2022-08-10T12:30:06.341Z,98851.00
2022-08-10T12:32:44.075Z,98839.25
2022-08-10T12:35:35.629Z,98836.19
2022-08-10T12:38:02.154Z,98828.63
2022-08-10T12:40:35.543Z,98825.31
2022-08-10T12:44:06.394Z,98824.09
2022-08-10T12:46:06.479Z,98832.88
2022-08-10T12:48:43.934Z,98812.25
2022-08-10T12:51:19.346Z,98830.22
2022-08-10T12:54:31.909Z,98821.03
2022-08-10T12:57:04.668Z,98826.28
2022-08-10T12:59:32.440Z,98818.72
2022-08-10T13:02:07.024Z,98812.41
2022-08-10T13:04:38.493Z,98819.22
2022-08-10T13:07:05.853Z,98814.75
2022-08-10T13:09:34.623Z,98800.63
2022-08-10T13:12:38.798Z,98797.53
2022-08-10T13:15:28.263Z,98802.41
2022-08-10T13:18:05.569Z,98799.53
2022-08-10T13:20:37.061Z,98809.94
2022-08-10T13:23:10.727Z,98797.50
2022-08-10T13:25:39.529Z,98788.47
2022-08-10T13:28:37.854Z,98787.28
2022-08-10T13:30:55.678Z,98789.75
2022-08-10T13:34:38.754Z,98778.66
2022-08-10T13:36:14.533Z,98786.03
2022-08-10T13:38:43.873Z,98776.44
2022-08-10T13:41:11.450Z,98778.72
2022-08-10T13:43:49.402Z,98776.97
2022-08-10T13:46:22.709Z,98776.97
2022-08-10T13:48:53.366Z,98761.75
2022-08-10T13:51:56.970Z,98765.16
2022-08-10T13:54:13.725Z,98774.59
2022-08-10T13:56:44.136Z,98767.63
2022-08-10T13:59:12.937Z,98781.19
2022-08-10T14:01:51.047Z,98761.97
2022-08-10T14:04:18.983Z,98767.44
2022-08-10T14:06:53.381Z,98762.69
2022-08-10T14:09:26.301Z,98765.97
2022-08-10T14:11:54.206Z,98755.22
2022-08-10T14:14:21.854Z,98741.00
2022-08-10T14:16:49.155Z,98746.75
2022-08-10T14:19:28.083Z,98755.75
2022-08-10T14:21:56.127Z,98748.25
2022-08-10T14:24:27.750Z,98740.13
2022-08-10T14:27:10.569Z,98728.13
2022-08-10T14:29:46.818Z,98733.56
2022-08-10T14:32:16.565Z,98731.72
2022-08-10T14:36:15.161Z,98741.53
2022-08-10T14:37:38.226Z,98736.47
2022-08-10T14:40:06.957Z,98723.22
2022-08-10T14:42:54.542Z,98736.22
2022-08-10T14:45:25.145Z,98727.16
2022-08-10T14:47:59.653Z,98728.47
2022-08-10T14:50:32.475Z,98722.91
2022-08-10T14:53:09.173Z,98717.78
2022-08-10T14:55:59.429Z,98717.63
2022-08-10T14:58:29.959Z,98704.19
2022-08-10T15:00:58.153Z,98709.94
2022-08-10T15:03:58.738Z,98704.81
2022-08-10T15:06:18.338Z,98697.81
2022-08-10T15:08:47.188Z,98703.84
2022-08-10T15:12:15.857Z,98702.78
2022-08-10T15:14:33.952Z,98704.34
2022-08-10T15:16:49.787Z,98704.00
2022-08-10T15:20:01.698Z,98708.44
2022-08-10T15:22:18.092Z,98699.38
2022-08-10T15:25:06.586Z,98701.03
2022-08-10T15:27:54.966Z,98701.25
2022-08-10T15:30:30.389Z,98706.44
2022-08-10T15:33:21.061Z,98706.88
2022-08-10T15:36:28.238Z,98694.38
2022-08-10T15:39:05.122Z,98691.31
2022-08-10T15:41:59.409Z,98694.56
2022-08-10T15:44:56.159Z,98685.91
2022-08-10T15:47:45.662Z,98685.09
2022-08-10T15:50:24.002Z,98690.50
2022-08-10T15:53:00.902Z,98683.13
2022-08-10T15:55:47.642Z,98675.34
2022-08-10T15:58:37.614Z,98675.13
2022-08-10T16:02:04.188Z,98680.97
2022-08-10T16:04:08.578Z,98678.41
2022-08-10T16:06:49.280Z,98676.34
2022-08-10T16:10:23.425Z,98671.56
2022-08-10T16:12:16.127Z,98662.53
2022-08-10T16:14:46.432Z,98669.78
2022-08-10T16:17:13.488Z,98672.91
2022-08-10T16:19:55.431Z,98664.75
2022-08-10T16:22:34.187Z,98663.06
2022-08-10T16:25:12.114Z,98662.22
2022-08-10T16:27:39.191Z,98666.69
2022-08-10T16:30:06.533Z,98658.03
2022-08-10T16:32:34.123Z,98657.81
2022-08-10T16:35:02.378Z,98666.38
2022-08-10T16:37:58.703Z,98648.88
2022-08-10T16:40:26.184Z,98658.88
2022-08-10T16:42:53.470Z,98660.25
2022-08-10T16:45:50.675Z,98659.75
2022-08-10T16:48:48.604Z,98654.34
2022-08-10T16:51:09.169Z,98660.19
2022-08-10T16:53:43.559Z,98655.53
2022-08-10T16:56:15.153Z,98654.25
2022-08-10T16:58:45.707Z,98651.59
2022-08-10T17:01:17.331Z,98659.78
2022-08-10T17:04:07.985Z,98655.31
2022-08-10T17:06:41.390Z,98648.44
2022-08-10T17:09:15.088Z,98645.22
2022-08-10T17:11:46.654Z,98646.53
2022-08-10T17:14:13.715Z,98645.13
2022-08-10T17:16:45.525Z,98654.41
2022-08-10T17:19:14.481Z,98645.06
2022-08-10T17:21:51.766Z,98645.75
2022-08-10T17:24:21.566Z,98645.53
2022-08-10T17:26:48.617Z,98646.03
2022-08-10T17:29:57.642Z,98646.34
2022-08-10T17:32:20.186Z,98640.19
2022-08-10T17:34:50.616Z,98642.22
2022-08-10T17:37:20.472Z,98647.91
2022-08-10T17:39:55.003Z,98649.44
2022-08-10T17:42:23.394Z,98647.09
2022-08-10T17:44:52.529Z,98645.22
2022-08-10T17:47:19.702Z,98642.25
2022-08-10T17:49:47.190Z,98645.34
2022-08-10T17:52:19.314Z,98650.50
2022-08-10T17:54:45.777Z,98639.09
2022-08-10T17:57:18.779Z,98647.69
2022-08-10T17:59:47.007Z,98639.03
2022-08-10T18:02:18.646Z,98652.94
2022-08-10T18:04:54.057Z,98656.16
2022-08-10T18:07:23.267Z,98657.34
2022-08-10T18:09:51.756Z,98660.59
2022-08-10T18:12:32.114Z,98654.25
2022-08-10T18:15:05.678Z,98654.25
2022-08-10T18:17:39.314Z,98657.66
2022-08-10T18:20:08.078Z,98659.66
2022-08-10T18:22:39.649Z,98659.59
2022-08-10T18:25:07.429Z,98664.91
2022-08-10T18:28:00.897Z,98662.38
2022-08-10T18:30:21.823Z,98658.72
2022-08-10T18:32:51.058Z,98658.13
2022-08-10T18:35:18.539Z,98670.75
2022-08-10T18:37:50.171Z,98668.25
2022-08-10T18:40:17.754Z,98667.84
2022-08-10T18:42:44.495Z,98674.25
2022-08-10T18:45:14.867Z,98673.16
2022-08-10T18:48:09.284Z,98673.50
2022-08-10T18:50:51.211Z,98671.72
2022-08-10T18:53:25.906Z,98683.19
2022-08-10T18:56:10.060Z,98691.66
2022-08-10T18:58:38.764Z,98689.78
2022-08-10T19:01:26.669Z,98691.44
2022-08-10T19:04:02.726Z,98693.09
2022-08-10T19:06:55.482Z,98693.91
2022-08-10T19:09:46.237Z,98695.56
2022-08-10T19:12:31.087Z,98705.28
2022-08-10T19:15:22.966Z,98699.44
2022-08-10T19:18:13.984Z,98706.25
2022-08-10T19:21:19.512Z,98703.50
2022-08-10T19:24:15.422Z,98717.19
2022-08-10T19:27:17.584Z,98706.56
2022-08-10T19:30:12.993Z,98703.53
2022-08-10T19:33:05.581Z,98708.88
2022-08-10T19:36:03.176Z,98714.28
2022-08-10T19:38:50.340Z,98720.66
2022-08-10T19:41:32.736Z,98710.00
2022-08-10T19:44:21.035Z,98709.53
2022-08-10T19:47:06.176Z,98712.25
2022-08-10T19:49:42.786Z,98714.00
2022-08-10T19:52:47.166Z,98713.63
2022-08-10T19:55:34.051Z,98709.31
2022-08-10T19:58:03.593Z,98713.56
2022-08-10T20:00:49.252Z,98724.97
2022-08-10T20:03:15.789Z,98716.75
2022-08-10T20:06:13.408Z,98721.19
2022-08-10T20:08:59.594Z,98721.44
2022-08-10T20:11:46.338Z,98731.38
2022-08-10T20:14:22.809Z,98729.88
2022-08-10T20:16:51.621Z,98723.22
2022-08-10T20:19:53.080Z,98731.19
2022-08-10T20:22:19.649Z,98735.81
2022-08-10T20:25:13.911Z,98732.56
2022-08-10T20:28:01.696Z,98735.00
2022-08-10T20:30:36.152Z,98734.00
2022-08-10T20:33:11.262Z,98736.44
2022-08-10T20:35:43.858Z,98729.44
2022-08-10T20:38:15.965Z,98732.06
2022-08-10T20:40:54.036Z,98727.56
2022-08-10T20:43:26.575Z,98723.13
2022-08-10T20:46:07.838Z,98727.47
2022-08-10T20:48:45.621Z,98720.63
2022-08-10T20:51:19.655Z,98731.03
2022-08-10T20:53:56.435Z,98728.59
2022-08-10T20:56:48.797Z,98734.28
2022-08-10T21:00:02.399Z,98722.91
2022-08-10T21:03:07.035Z,98719.28
2022-08-10T21:05:56.250Z,98720.53
2022-08-10T21:08:45.017Z,98715.56
2022-08-10T21:11:17.669Z,98721.78
2022-08-10T21:14:02.768Z,98723.44
2022-08-10T21:16:48.181Z,98719.13
2022-08-10T21:19:38.666Z,98719.72
2022-08-10T21:22:11.515Z,98719.06
2022-08-10T21:24:53.588Z,98714.31
2022-08-10T21:27:38.220Z,98718.22
2022-08-10T21:30:16.063Z,98719.66
2022-08-10T21:33:03.592Z,98718.22
2022-08-10T21:35:38.543Z,98723.78
2022-08-10T21:38:47.137Z,98731.56
2022-08-10T21:45:07.836Z,98742.72
2022-08-10T21:48:16.656Z,98739.88
2022-08-10T21:51:09.349Z,98731.44
2022-08-10T21:54:27.704Z,98732.59
2022-08-10T21:57:43.165Z,98724.94
2022-08-10T22:00:32.149Z,98729.66
2022-08-10T22:03:18.891Z,98736.47
2022-08-10T22:06:12.925Z,98738.59
2022-08-10T22:09:03.614Z,98737.34
2022-08-10T22:11:51.853Z,98731.13
2022-08-10T22:14:50.887Z,98727.81
2022-08-10T22:18:01.285Z,98727.38
2022-08-10T22:20:45.666Z,98731.88
2022-08-10T22:23:41.858Z,98744.31
2022-08-10T22:27:02.566Z,98739.28
2022-08-10T22:29:54.179Z,98741.09
2022-08-10T22:31:28.874Z,98731.34
2022-08-10T22:33:06.930Z,98734.63
2022-08-10T22:36:29.980Z,98737.31
2022-08-10T22:40:11.430Z,98732.97
2022-08-10T22:42:58.128Z,98732.72
2022-08-10T22:45:44.958Z,98730.81
2022-08-10T22:48:31.009Z,98735.16
2022-08-10T22:51:11.943Z,98731.03
2022-08-10T22:54:02.076Z,98735.97
2022-08-10T22:56:47.383Z,98734.69
2022-08-10T22:59:27.021Z,98735.53
2022-08-10T23:02:10.610Z,98742.28
2022-08-10T23:04:45.251Z,98742.84
2022-08-10T23:07:17.804Z,98739.38
2022-08-10T23:10:07.700Z,98736.25
2022-08-10T23:12:52.924Z,98729.31
2022-08-10T23:15:42.279Z,98734.66
2022-08-10T23:18:31.561Z,98731.25
2022-08-10T23:20:59.727Z,98744.22
2022-08-10T23:23:28.629Z,98743.47
2022-08-10T23:25:56.397Z,98746.34
2022-08-10T23:28:38.203Z,98740.41
2022-08-10T23:31:12.380Z,98736.91
2022-08-10T23:33:41.045Z,98738.31
2022-08-10T23:36:34.302Z,98741.09
2022-08-10T23:39:24.530Z,98733.31
2022-08-10T23:41:53.012Z,98732.63
2022-08-10T23:44:21.335Z,98730.53
2022-08-10T23:46:48.810Z,98730.91
2022-08-10T23:49:15.761Z,98731.56
2022-08-10T23:51:55.315Z,98722.63
2022-08-10T23:54:24.170Z,98721.94
2022-08-10T23:56:54.156Z,98724.78
2022-08-10T23:59:23.015Z,98726.19
